sensor_id;sensor_type;location;lat;lon;timestamp;temperature;humidity
29211;DHT22;16250;49.932;10.980;2023-01-10T00:02:18;4.70;99.90
29211;DHT22;16250;49.932;10.980;2023-01-10T00:04:43;4.70;99.90
29211;DHT22;16250;49.932;10.980;2023-01-10T00:07:09;4.70;99.90
29211;DHT22;16250;49.932;10.980;2023-01-10T00:09:34;4.70;99.90
29211;DHT22;16250;49.932;10.980;2023-01-10T00:12:00;4.80;99.90
29211;DHT22;16250;49.932;10.980;2023-01-10T00:14:44;4.80;99.90
29211;DHT22;16250;49.932;10.980;2023-01-10T00:17:09;4.80;99.90
29211;DHT22;16250;49.932;10.980;2023-01-10T00:19:35;4.80;99.90
29211;DHT22;16250;49.932;10.980;2023-01-10T00:22:00;4.80;99.90
29211;DHT22;16250;49.932;10.980;2023-01-10T00:24:30;4.80;99.90
29211;DHT22;16250;49.932;10.980;2023-01-10T00:26:55;4.80;99.90
29211;DHT22;16250;49.932;10.980;2023-01-10T00:29:24;4.80;99.90
29211;DHT22;16250;49.932;10.980;2023-01-10T00:31:52;4.80;99.90
29211;DHT22;16250;49.932;10.980;2023-01-10T00:34:17;4.80;99.90
29211;DHT22;16250;49.932;10.980;2023-01-10T00:36:43;4.90;99.90
29211;DHT22;16250;49.932;10.980;2023-01-10T00:39:09;4.80;99.90
29211;DHT22;16250;49.932;10.980;2023-01-10T00:41:35;4.80;99.90
29211;DHT22;16250;49.932;10.980;2023-01-10T00:44:19;4.90;99.90
29211;DHT22;16250;49.932;10.980;2023-01-10T00:46:45;4.90;99.90
29211;DHT22;16250;49.932;10.980;2023-01-10T00:49:10;4.90;99.90
29211;DHT22;16250;49.932;10.980;2023-01-10T00:51:38;4.80;99.90
29211;DHT22;16250;49.932;10.980;2023-01-10T00:54:04;4.80;99.90
29211;DHT22;16250;49.932;10.980;2023-01-10T00:56:29;4.80;99.90
29211;DHT22;16250;49.932;10.980;2023-01-10T00:58:55;4.70;99.90
29211;DHT22;16250;49.932;10.980;2023-01-10T01:01:20;4.70;99.90
29211;DHT22;16250;49.932;10.980;2023-01-10T01:03:46;4.70;99.90
29211;DHT22;16250;49.932;10.980;2023-01-10T01:06:12;4.70;99.90
29211;DHT22;16250;49.932;10.980;2023-01-10T01:08:37;4.70;99.90
29211;DHT22;16250;49.932;10.980;2023-01-10T01:11:03;4.70;99.90
29211;DHT22;16250;49.932;10.980;2023-01-10T01:13:28;4.70;99.90
29211;DHT22;16250;49.932;10.980;2023-01-10T01:15:57;4.70;99.90
29211;DHT22;16250;49.932;10.980;2023-01-10T01:18:23;4.70;99.90
29211;DHT22;16250;49.932;10.980;2023-01-10T01:20:53;4.70;99.90
29211;DHT22;16250;49.932;10.980;2023-01-10T01:23:19;4.70;99.90
29211;DHT22;16250;49.932;10.980;2023-01-10T01:25:48;4.70;99.90
29211;DHT22;16250;49.932;10.980;2023-01-10T01:28:14;4.60;99.90
29211;DHT22;16250;49.932;10.980;2023-01-10T01:30:39;4.60;99.90
29211;DHT22;16250;49.932;10.980;2023-01-10T01:33:05;4.60;99.90
29211;DHT22;16250;49.932;10.980;2023-01-10T01:35:30;4.50;99.90
29211;DHT22;16250;49.932;10.980;2023-01-10T01:37:57;4.50;99.90
29211;DHT22;16250;49.932;10.980;2023-01-10T01:40:23;4.50;99.90
29211;DHT22;16250;49.932;10.980;2023-01-10T01:42:49;4.50;99.90
29211;DHT22;16250;49.932;10.980;2023-01-10T01:47:59;4.50;99.90
29211;DHT22;16250;49.932;10.980;2023-01-10T01:50:39;4.50;99.90
29211;DHT22;16250;49.932;10.980;2023-01-10T01:53:28;4.50;99.90
29211;DHT22;16250;49.932;10.980;2023-01-10T01:56:01;4.60;99.90
29211;DHT22;16250;49.932;10.980;2023-01-10T01:58:43;4.60;99.90
29211;DHT22;16250;49.932;10.980;2023-01-10T02:01:10;4.70;99.90
29211;DHT22;16250;49.932;10.980;2023-01-10T02:03:37;4.60;99.90
29211;DHT22;16250;49.932;10.980;2023-01-10T02:06:03;4.60;99.90
29211;DHT22;16250;49.932;10.980;2023-01-10T02:08:28;4.60;99.90
29211;DHT22;16250;49.932;10.980;2023-01-10T02:11:01;4.60;99.90
29211;DHT22;16250;49.932;10.980;2023-01-10T02:13:28;4.60;99.90
29211;DHT22;16250;49.932;10.980;2023-01-10T02:15:54;4.60;99.90
29211;DHT22;16250;49.932;10.980;2023-01-10T02:18:21;4.60;99.90
29211;DHT22;16250;49.932;10.980;2023-01-10T02:30:07;4.60;99.90
29211;DHT22;16250;49.932;10.980;2023-01-10T02:32:47;4.60;99.90
29211;DHT22;16250;49.932;10.980;2023-01-10T02:35:51;4.60;99.90
29211;DHT22;16250;49.932;10.980;2023-01-10T02:44:27;4.60;99.90
29211;DHT22;16250;49.932;10.980;2023-01-10T02:46:55;4.60;99.90
29211;DHT22;16250;49.932;10.980;2023-01-10T02:49:21;4.60;99.90
29211;DHT22;16250;49.932;10.980;2023-01-10T02:51:46;4.60;99.90
29211;DHT22;16250;49.932;10.980;2023-01-10T02:54:18;4.60;99.90
29211;DHT22;16250;49.932;10.980;2023-01-10T03:03:01;4.60;99.90
29211;DHT22;16250;49.932;10.980;2023-01-10T03:08:42;4.70;99.90
29211;DHT22;16250;49.932;10.980;2023-01-10T03:11:12;4.70;99.90
29211;DHT22;16250;49.932;10.980;2023-01-10T03:14:00;4.70;99.90
29211;DHT22;16250;49.932;10.980;2023-01-10T03:16:28;4.70;99.90
29211;DHT22;16250;49.932;10.980;2023-01-10T03:19:05;4.60;99.90
29211;DHT22;16250;49.932;10.980;2023-01-10T03:21:33;4.60;99.90
29211;DHT22;16250;49.932;10.980;2023-01-10T03:24:06;4.60;99.90
29211;DHT22;16250;49.932;10.980;2023-01-10T03:26:46;4.60;99.90
29211;DHT22;16250;49.932;10.980;2023-01-10T03:29:18;4.60;99.90
29211;DHT22;16250;49.932;10.980;2023-01-10T03:31:53;4.60;99.90
29211;DHT22;16250;49.932;10.980;2023-01-10T03:34:21;4.60;99.90
29211;DHT22;16250;49.932;10.980;2023-01-10T03:36:55;4.60;99.90
29211;DHT22;16250;49.932;10.980;2023-01-10T03:39:31;4.60;99.90
29211;DHT22;16250;49.932;10.980;2023-01-10T03:44:52;4.60;99.90
29211;DHT22;16250;49.932;10.980;2023-01-10T03:47:39;4.60;99.90
29211;DHT22;16250;49.932;10.980;2023-01-10T03:50:15;4.60;99.90
29211;DHT22;16250;49.932;10.980;2023-01-10T03:52:41;4.60;99.90
29211;DHT22;16250;49.932;10.980;2023-01-10T03:55:12;4.70;99.90
29211;DHT22;16250;49.932;10.980;2023-01-10T03:57:41;4.70;99.90
29211;DHT22;16250;49.932;10.980;2023-01-10T04:00:07;4.70;99.90
29211;DHT22;16250;49.932;10.980;2023-01-10T04:02:33;4.70;99.90
29211;DHT22;16250;49.932;10.980;2023-01-10T04:04:59;4.70;99.90
29211;DHT22;16250;49.932;10.980;2023-01-10T04:07:25;4.70;99.90
29211;DHT22;16250;49.932;10.980;2023-01-10T04:09:51;4.70;99.90
29211;DHT22;16250;49.932;10.980;2023-01-10T04:12:17;4.80;99.90
29211;DHT22;16250;49.932;10.980;2023-01-10T04:14:43;4.80;99.90
29211;DHT22;16250;49.932;10.980;2023-01-10T04:17:11;4.80;99.90
29211;DHT22;16250;49.932;10.980;2023-01-10T04:19:37;4.80;99.90
29211;DHT22;16250;49.932;10.980;2023-01-10T04:22:03;4.80;99.90
29211;DHT22;16250;49.932;10.980;2023-01-10T04:24:30;4.80;99.90
29211;DHT22;16250;49.932;10.980;2023-01-10T04:26:56;4.80;99.90
29211;DHT22;16250;49.932;10.980;2023-01-10T04:29:21;4.80;99.90
29211;DHT22;16250;49.932;10.980;2023-01-10T04:31:47;4.80;99.90
29211;DHT22;16250;49.932;10.980;2023-01-10T04:34:12;4.80;99.90
29211;DHT22;16250;49.932;10.980;2023-01-10T04:36:38;4.90;99.90
29211;DHT22;16250;49.932;10.980;2023-01-10T04:39:04;4.80;99.90
29211;DHT22;16250;49.932;10.980;2023-01-10T04:41:29;4.80;99.90
29211;DHT22;16250;49.932;10.980;2023-01-10T04:43:55;4.70;99.90
29211;DHT22;16250;49.932;10.980;2023-01-10T04:46:21;4.80;99.90
29211;DHT22;16250;49.932;10.980;2023-01-10T04:48:47;4.70;99.90
29211;DHT22;16250;49.932;10.980;2023-01-10T04:51:12;4.80;99.90
29211;DHT22;16250;49.932;10.980;2023-01-10T04:53:38;4.80;99.90
29211;DHT22;16250;49.932;10.980;2023-01-10T04:56:08;4.70;99.90
29211;DHT22;16250;49.932;10.980;2023-01-10T04:58:35;4.60;99.90
29211;DHT22;16250;49.932;10.980;2023-01-10T05:01:09;4.60;99.90
29211;DHT22;16250;49.932;10.980;2023-01-10T05:03:35;4.60;99.90
29211;DHT22;16250;49.932;10.980;2023-01-10T05:06:02;4.60;99.90
29211;DHT22;16250;49.932;10.980;2023-01-10T05:08:27;4.60;99.90
29211;DHT22;16250;49.932;10.980;2023-01-10T05:10:53;4.60;99.90
29211;DHT22;16250;49.932;10.980;2023-01-10T05:13:18;4.60;99.90
29211;DHT22;16250;49.932;10.980;2023-01-10T05:15:44;4.50;99.90
29211;DHT22;16250;49.932;10.980;2023-01-10T05:18:09;4.50;99.90
29211;DHT22;16250;49.932;10.980;2023-01-10T05:20:35;4.40;99.90
29211;DHT22;16250;49.932;10.980;2023-01-10T05:23:00;4.40;99.90
29211;DHT22;16250;49.932;10.980;2023-01-10T05:25:26;4.40;99.90
29211;DHT22;16250;49.932;10.980;2023-01-10T05:27:52;4.40;99.90
29211;DHT22;16250;49.932;10.980;2023-01-10T05:30:17;4.40;99.90
29211;DHT22;16250;49.932;10.980;2023-01-10T05:32:43;4.50;99.90
29211;DHT22;16250;49.932;10.980;2023-01-10T05:35:09;4.50;99.90
29211;DHT22;16250;49.932;10.980;2023-01-10T05:37:34;4.40;99.90
29211;DHT22;16250;49.932;10.980;2023-01-10T05:40:00;4.40;99.90
29211;DHT22;16250;49.932;10.980;2023-01-10T05:42:26;4.40;99.90
29211;DHT22;16250;49.932;10.980;2023-01-10T05:44:51;4.30;99.90
29211;DHT22;16250;49.932;10.980;2023-01-10T05:47:17;4.40;99.90
29211;DHT22;16250;49.932;10.980;2023-01-10T05:49:42;4.40;99.90
29211;DHT22;16250;49.932;10.980;2023-01-10T05:52:08;4.40;99.90
29211;DHT22;16250;49.932;10.980;2023-01-10T05:54:33;4.40;99.90
29211;DHT22;16250;49.932;10.980;2023-01-10T05:56:59;4.40;99.90
29211;DHT22;16250;49.932;10.980;2023-01-10T05:59:24;4.40;99.90
29211;DHT22;16250;49.932;10.980;2023-01-10T06:01:50;4.40;99.90
29211;DHT22;16250;49.932;10.980;2023-01-10T06:04:15;4.30;99.90
29211;DHT22;16250;49.932;10.980;2023-01-10T06:06:41;4.40;99.90
29211;DHT22;16250;49.932;10.980;2023-01-10T06:09:07;4.40;99.90
29211;DHT22;16250;49.932;10.980;2023-01-10T06:11:32;4.50;99.90
29211;DHT22;16250;49.932;10.980;2023-01-10T06:14:01;4.50;99.90
29211;DHT22;16250;49.932;10.980;2023-01-10T06:16:27;4.40;99.90
29211;DHT22;16250;49.932;10.980;2023-01-10T06:18:52;4.30;99.90
29211;DHT22;16250;49.932;10.980;2023-01-10T06:21:18;4.30;99.90
29211;DHT22;16250;49.932;10.980;2023-01-10T06:23:43;4.30;99.90
29211;DHT22;16250;49.932;10.980;2023-01-10T06:26:09;4.30;99.90
29211;DHT22;16250;49.932;10.980;2023-01-10T06:28:34;4.40;99.90
29211;DHT22;16250;49.932;10.980;2023-01-10T06:31:00;4.40;99.90
29211;DHT22;16250;49.932;10.980;2023-01-10T06:33:26;4.40;99.90
29211;DHT22;16250;49.932;10.980;2023-01-10T06:35:51;4.40;99.90
29211;DHT22;16250;49.932;10.980;2023-01-10T06:38:17;4.40;99.90
29211;DHT22;16250;49.932;10.980;2023-01-10T06:40:43;4.40;99.90
29211;DHT22;16250;49.932;10.980;2023-01-10T06:43:08;4.40;99.90
29211;DHT22;16250;49.932;10.980;2023-01-10T06:45:34;4.40;99.90
29211;DHT22;16250;49.932;10.980;2023-01-10T06:48:00;4.50;99.90
29211;DHT22;16250;49.932;10.980;2023-01-10T06:50:25;4.50;99.90
29211;DHT22;16250;49.932;10.980;2023-01-10T06:52:55;4.40;99.90
29211;DHT22;16250;49.932;10.980;2023-01-10T06:55:21;4.50;99.90
29211;DHT22;16250;49.932;10.980;2023-01-10T06:57:47;4.50;99.90
29211;DHT22;16250;49.932;10.980;2023-01-10T07:00:13;4.50;99.90
29211;DHT22;16250;49.932;10.980;2023-01-10T07:02:39;4.40;99.90
29211;DHT22;16250;49.932;10.980;2023-01-10T07:05:04;4.40;99.90
29211;DHT22;16250;49.932;10.980;2023-01-10T07:07:30;4.40;99.90
29211;DHT22;16250;49.932;10.980;2023-01-10T07:09:55;4.40;99.90
29211;DHT22;16250;49.932;10.980;2023-01-10T07:12:22;4.40;99.90
29211;DHT22;16250;49.932;10.980;2023-01-10T07:14:47;4.40;99.90
29211;DHT22;16250;49.932;10.980;2023-01-10T07:17:13;4.40;99.90
29211;DHT22;16250;49.932;10.980;2023-01-10T07:19:39;4.40;99.90
29211;DHT22;16250;49.932;10.980;2023-01-10T07:22:04;4.40;99.90
29211;DHT22;16250;49.932;10.980;2023-01-10T07:24:30;4.40;99.90
29211;DHT22;16250;49.932;10.980;2023-01-10T07:26:55;4.60;99.90
29211;DHT22;16250;49.932;10.980;2023-01-10T07:29:21;4.40;99.90
29211;DHT22;16250;49.932;10.980;2023-01-10T07:31:46;4.40;99.90
29211;DHT22;16250;49.932;10.980;2023-01-10T07:34:12;4.40;99.90
29211;DHT22;16250;49.932;10.980;2023-01-10T07:36:38;4.50;99.90
29211;DHT22;16250;49.932;10.980;2023-01-10T07:39:03;4.40;99.90
29211;DHT22;16250;49.932;10.980;2023-01-10T07:41:29;4.40;99.90
29211;DHT22;16250;49.932;10.980;2023-01-10T07:43:55;4.40;99.90
29211;DHT22;16250;49.932;10.980;2023-01-10T07:46:20;4.40;99.90
29211;DHT22;16250;49.932;10.980;2023-01-10T07:48:46;4.40;99.90
29211;DHT22;16250;49.932;10.980;2023-01-10T07:51:13;4.40;99.90
29211;DHT22;16250;49.932;10.980;2023-01-10T07:53:38;4.40;99.90
29211;DHT22;16250;49.932;10.980;2023-01-10T07:56:04;4.40;99.90
29211;DHT22;16250;49.932;10.980;2023-01-10T07:58:31;4.30;99.90
29211;DHT22;16250;49.932;10.980;2023-01-10T08:01:01;4.40;99.90
29211;DHT22;16250;49.932;10.980;2023-01-10T08:03:28;4.40;99.90
29211;DHT22;16250;49.932;10.980;2023-01-10T08:06:03;4.40;99.90
29211;DHT22;16250;49.932;10.980;2023-01-10T08:08:29;4.50;99.90
29211;DHT22;16250;49.932;10.980;2023-01-10T08:10:56;4.40;99.90
29211;DHT22;16250;49.932;10.980;2023-01-10T08:13:22;4.50;99.90
29211;DHT22;16250;49.932;10.980;2023-01-10T08:15:47;4.50;99.90
29211;DHT22;16250;49.932;10.980;2023-01-10T08:18:17;4.50;99.90
29211;DHT22;16250;49.932;10.980;2023-01-10T08:20:43;4.50;99.90
29211;DHT22;16250;49.932;10.980;2023-01-10T08:23:11;4.50;99.90
29211;DHT22;16250;49.932;10.980;2023-01-10T08:25:36;4.50;99.90
29211;DHT22;16250;49.932;10.980;2023-01-10T08:28:02;4.50;99.90
29211;DHT22;16250;49.932;10.980;2023-01-10T08:30:28;4.60;99.90
29211;DHT22;16250;49.932;10.980;2023-01-10T08:32:53;4.60;99.90
29211;DHT22;16250;49.932;10.980;2023-01-10T08:35:19;4.70;99.90
29211;DHT22;16250;49.932;10.980;2023-01-10T08:37:44;4.60;99.90
29211;DHT22;16250;49.932;10.980;2023-01-10T08:40:11;4.60;99.90
29211;DHT22;16250;49.932;10.980;2023-01-10T08:42:37;4.60;99.90
29211;DHT22;16250;49.932;10.980;2023-01-10T08:45:03;4.60;99.90
29211;DHT22;16250;49.932;10.980;2023-01-10T08:47:29;4.60;99.90
29211;DHT22;16250;49.932;10.980;2023-01-10T08:49:54;4.70;99.90
29211;DHT22;16250;49.932;10.980;2023-01-10T08:52:20;4.60;99.90
29211;DHT22;16250;49.932;10.980;2023-01-10T08:54:46;4.60;99.90
29211;DHT22;16250;49.932;10.980;2023-01-10T08:57:11;4.70;99.90
29211;DHT22;16250;49.932;10.980;2023-01-10T08:59:37;4.70;99.90
29211;DHT22;16250;49.932;10.980;2023-01-10T09:02:03;4.60;99.90
29211;DHT22;16250;49.932;10.980;2023-01-10T09:04:29;4.60;99.90
29211;DHT22;16250;49.932;10.980;2023-01-10T09:06:55;4.60;99.90
29211;DHT22;16250;49.932;10.980;2023-01-10T09:09:21;4.60;99.90
29211;DHT22;16250;49.932;10.980;2023-01-10T09:11:47;4.60;99.90
29211;DHT22;16250;49.932;10.980;2023-01-10T09:14:12;4.60;99.90
29211;DHT22;16250;49.932;10.980;2023-01-10T09:16:38;4.60;99.90
29211;DHT22;16250;49.932;10.980;2023-01-10T09:19:04;4.60;99.90
29211;DHT22;16250;49.932;10.980;2023-01-10T09:21:30;4.70;99.90
29211;DHT22;16250;49.932;10.980;2023-01-10T09:23:55;4.70;99.90
29211;DHT22;16250;49.932;10.980;2023-01-10T09:26:21;4.70;99.90
29211;DHT22;16250;49.932;10.980;2023-01-10T09:28:47;4.60;99.90
29211;DHT22;16250;49.932;10.980;2023-01-10T09:31:13;4.60;99.90
29211;DHT22;16250;49.932;10.980;2023-01-10T09:33:39;4.60;99.90
29211;DHT22;16250;49.932;10.980;2023-01-10T09:36:07;4.60;99.90
29211;DHT22;16250;49.932;10.980;2023-01-10T09:38:33;4.70;99.90
29211;DHT22;16250;49.932;10.980;2023-01-10T09:44:01;4.80;99.90
29211;DHT22;16250;49.932;10.980;2023-01-10T09:46:59;5.00;99.90
29211;DHT22;16250;49.932;10.980;2023-01-10T09:52:21;5.00;99.90
29211;DHT22;16250;49.932;10.980;2023-01-10T09:54:47;5.00;99.90
29211;DHT22;16250;49.932;10.980;2023-01-10T09:57:19;5.00;99.90
29211;DHT22;16250;49.932;10.980;2023-01-10T09:59:46;5.10;99.90
29211;DHT22;16250;49.932;10.980;2023-01-10T10:02:25;5.20;99.90
29211;DHT22;16250;49.932;10.980;2023-01-10T10:05:15;5.10;99.90
29211;DHT22;16250;49.932;10.980;2023-01-10T10:07:43;5.20;99.90
29211;DHT22;16250;49.932;10.980;2023-01-10T10:10:20;5.30;99.90
29211;DHT22;16250;49.932;10.980;2023-01-10T10:18:02;5.10;99.90
29211;DHT22;16250;49.932;10.980;2023-01-10T10:26:05;5.20;99.90
29211;DHT22;16250;49.932;10.980;2023-01-10T10:31:14;5.10;99.90
29211;DHT22;16250;49.932;10.980;2023-01-10T10:34:11;5.10;99.90
29211;DHT22;16250;49.932;10.980;2023-01-10T10:36:45;5.00;99.90
29211;DHT22;16250;49.932;10.980;2023-01-10T10:39:16;5.10;99.90
29211;DHT22;16250;49.932;10.980;2023-01-10T10:41:45;5.10;99.90
29211;DHT22;16250;49.932;10.980;2023-01-10T10:46:53;5.10;99.90
29211;DHT22;16250;49.932;10.980;2023-01-10T10:52:26;5.10;99.90
29211;DHT22;16250;49.932;10.980;2023-01-10T10:54:55;5.20;99.90
29211;DHT22;16250;49.932;10.980;2023-01-10T10:57:23;5.20;99.90
29211;DHT22;16250;49.932;10.980;2023-01-10T10:59:49;5.20;99.90
29211;DHT22;16250;49.932;10.980;2023-01-10T11:02:24;5.30;99.90
29211;DHT22;16250;49.932;10.980;2023-01-10T11:04:54;5.30;99.90
29211;DHT22;16250;49.932;10.980;2023-01-10T11:07:21;5.40;99.90
29211;DHT22;16250;49.932;10.980;2023-01-10T11:09:48;5.30;99.90
29211;DHT22;16250;49.932;10.980;2023-01-10T11:12:20;5.30;99.90
29211;DHT22;16250;49.932;10.980;2023-01-10T11:14:50;5.40;99.90
29211;DHT22;16250;49.932;10.980;2023-01-10T11:17:27;5.40;99.90
29211;DHT22;16250;49.932;10.980;2023-01-10T11:22:29;5.40;99.90
29211;DHT22;16250;49.932;10.980;2023-01-10T11:25:00;5.40;99.90
29211;DHT22;16250;49.932;10.980;2023-01-10T11:27:29;5.50;99.90
29211;DHT22;16250;49.932;10.980;2023-01-10T11:30:06;5.50;99.90
29211;DHT22;16250;49.932;10.980;2023-01-10T11:32:36;5.50;99.90
29211;DHT22;16250;49.932;10.980;2023-01-10T11:35:16;5.40;99.90
29211;DHT22;16250;49.932;10.980;2023-01-10T11:38:08;5.50;99.90
29211;DHT22;16250;49.932;10.980;2023-01-10T11:41:00;5.40;99.90
29211;DHT22;16250;49.932;10.980;2023-01-10T11:43:36;5.40;99.90
29211;DHT22;16250;49.932;10.980;2023-01-10T11:46:16;5.40;99.90
29211;DHT22;16250;49.932;10.980;2023-01-10T11:49:05;5.40;99.90
29211;DHT22;16250;49.932;10.980;2023-01-10T11:51:43;5.40;99.90
29211;DHT22;16250;49.932;10.980;2023-01-10T11:54:14;5.40;99.90
29211;DHT22;16250;49.932;10.980;2023-01-10T11:56:40;5.40;99.90
29211;DHT22;16250;49.932;10.980;2023-01-10T11:59:17;5.40;99.90
29211;DHT22;16250;49.932;10.980;2023-01-10T12:01:53;5.40;99.90
29211;DHT22;16250;49.932;10.980;2023-01-10T12:04:20;5.30;99.90
29211;DHT22;16250;49.932;10.980;2023-01-10T12:06:51;5.30;99.90
29211;DHT22;16250;49.932;10.980;2023-01-10T12:09:37;5.40;99.90
29211;DHT22;16250;49.932;10.980;2023-01-10T12:14:54;5.20;99.90
29211;DHT22;16250;49.932;10.980;2023-01-10T12:17:26;5.10;99.90
29211;DHT22;16250;49.932;10.980;2023-01-10T12:19:53;4.90;99.90
29211;DHT22;16250;49.932;10.980;2023-01-10T12:23:07;4.90;99.90
29211;DHT22;16250;49.932;10.980;2023-01-10T12:25:17;4.90;99.90
29211;DHT22;16250;49.932;10.980;2023-01-10T12:27:44;4.90;99.90
29211;DHT22;16250;49.932;10.980;2023-01-10T12:30:15;5.00;99.90
29211;DHT22;16250;49.932;10.980;2023-01-10T12:32:46;5.00;99.90
29211;DHT22;16250;49.932;10.980;2023-01-10T12:35:18;5.20;99.90
29211;DHT22;16250;49.932;10.980;2023-01-10T12:37:48;5.10;99.90
29211;DHT22;16250;49.932;10.980;2023-01-10T12:40:40;5.20;99.90
29211;DHT22;16250;49.932;10.980;2023-01-10T12:43:14;5.10;99.90
29211;DHT22;16250;49.932;10.980;2023-01-10T12:46:09;5.00;99.90
29211;DHT22;16250;49.932;10.980;2023-01-10T12:48:49;5.10;99.90
29211;DHT22;16250;49.932;10.980;2023-01-10T12:51:21;5.10;99.90
29211;DHT22;16250;49.932;10.980;2023-01-10T12:53:56;5.10;99.90
29211;DHT22;16250;49.932;10.980;2023-01-10T12:56:23;5.10;99.90
29211;DHT22;16250;49.932;10.980;2023-01-10T12:59:34;5.10;99.90
29211;DHT22;16250;49.932;10.980;2023-01-10T13:02:09;5.00;99.90
29211;DHT22;16250;49.932;10.980;2023-01-10T13:04:39;4.90;99.90
29211;DHT22;16250;49.932;10.980;2023-01-10T13:07:10;4.90;99.90
29211;DHT22;16250;49.932;10.980;2023-01-10T13:09:37;5.00;99.90
29211;DHT22;16250;49.932;10.980;2023-01-10T13:12:27;4.90;99.90
29211;DHT22;16250;49.932;10.980;2023-01-10T13:15:03;5.00;99.90
29211;DHT22;16250;49.932;10.980;2023-01-10T13:22:42;5.20;99.90
29211;DHT22;16250;49.932;10.980;2023-01-10T13:25:24;5.20;99.90
29211;DHT22;16250;49.932;10.980;2023-01-10T13:28:01;5.20;99.90
29211;DHT22;16250;49.932;10.980;2023-01-10T13:30:35;5.30;99.90
29211;DHT22;16250;49.932;10.980;2023-01-10T13:33:24;5.30;99.90
29211;DHT22;16250;49.932;10.980;2023-01-10T13:35:52;5.20;99.90
29211;DHT22;16250;49.932;10.980;2023-01-10T13:38:22;5.30;99.90
29211;DHT22;16250;49.932;10.980;2023-01-10T13:40:57;5.30;99.90
29211;DHT22;16250;49.932;10.980;2023-01-10T13:43:30;5.40;99.90
29211;DHT22;16250;49.932;10.980;2023-01-10T13:48:40;5.40;99.90
29211;DHT22;16250;49.932;10.980;2023-01-10T13:51:19;5.50;99.90
29211;DHT22;16250;49.932;10.980;2023-01-10T13:56:41;5.50;99.90
29211;DHT22;16250;49.932;10.980;2023-01-10T14:02:22;5.50;99.90
29211;DHT22;16250;49.932;10.980;2023-01-10T14:04:58;5.50;99.90
29211;DHT22;16250;49.932;10.980;2023-01-10T14:07:28;5.40;99.90
29211;DHT22;16250;49.932;10.980;2023-01-10T14:10:01;5.30;99.90
29211;DHT22;16250;49.932;10.980;2023-01-10T14:12:32;5.20;99.90
29211;DHT22;16250;49.932;10.980;2023-01-10T14:15:24;5.20;99.90
29211;DHT22;16250;49.932;10.980;2023-01-10T14:20:56;5.30;99.90
29211;DHT22;16250;49.932;10.980;2023-01-10T14:26:03;5.30;99.90
29211;DHT22;16250;49.932;10.980;2023-01-10T14:28:31;5.30;99.90
29211;DHT22;16250;49.932;10.980;2023-01-10T14:31:17;5.30;99.90
29211;DHT22;16250;49.932;10.980;2023-01-10T14:33:43;5.30;99.90
29211;DHT22;16250;49.932;10.980;2023-01-10T14:36:15;5.20;99.90
29211;DHT22;16250;49.932;10.980;2023-01-10T14:38:43;5.20;99.90
29211;DHT22;16250;49.932;10.980;2023-01-10T14:41:21;5.30;99.90
29211;DHT22;16250;49.932;10.980;2023-01-10T14:43:56;5.20;99.90
29211;DHT22;16250;49.932;10.980;2023-01-10T14:46:28;5.20;99.90
29211;DHT22;16250;49.932;10.980;2023-01-10T14:48:55;5.10;99.90
29211;DHT22;16250;49.932;10.980;2023-01-10T14:51:30;5.10;99.90
29211;DHT22;16250;49.932;10.980;2023-01-10T14:53:58;5.00;99.90
29211;DHT22;16250;49.932;10.980;2023-01-10T14:56:40;4.90;99.90
29211;DHT22;16250;49.932;10.980;2023-01-10T14:59:28;5.00;99.90
29211;DHT22;16250;49.932;10.980;2023-01-10T15:02:00;4.90;99.90
29211;DHT22;16250;49.932;10.980;2023-01-10T15:04:28;4.90;99.90
29211;DHT22;16250;49.932;10.980;2023-01-10T15:06:59;4.90;99.90
29211;DHT22;16250;49.932;10.980;2023-01-10T15:09:28;4.80;99.90
29211;DHT22;16250;49.932;10.980;2023-01-10T15:11:57;4.80;99.90
29211;DHT22;16250;49.932;10.980;2023-01-10T15:14:25;4.80;99.90
29211;DHT22;16250;49.932;10.980;2023-01-10T15:16:55;4.80;99.90
29211;DHT22;16250;49.932;10.980;2023-01-10T15:19:22;4.80;99.90
29211;DHT22;16250;49.932;10.980;2023-01-10T15:21:48;4.80;99.90
29211;DHT22;16250;49.932;10.980;2023-01-10T15:24:26;4.80;99.90
29211;DHT22;16250;49.932;10.980;2023-01-10T15:26:53;4.80;99.90
29211;DHT22;16250;49.932;10.980;2023-01-10T15:29:24;4.70;99.90
29211;DHT22;16250;49.932;10.980;2023-01-10T15:31:51;4.70;99.90
29211;DHT22;16250;49.932;10.980;2023-01-10T15:34:21;4.60;99.90
29211;DHT22;16250;49.932;10.980;2023-01-10T15:36:53;4.60;99.90
29211;DHT22;16250;49.932;10.980;2023-01-10T15:39:29;4.70;99.90
29211;DHT22;16250;49.932;10.980;2023-01-10T15:41:58;4.70;99.90
29211;DHT22;16250;49.932;10.980;2023-01-10T15:44:38;4.70;99.90
29211;DHT22;16250;49.932;10.980;2023-01-10T15:47:05;4.70;99.90
29211;DHT22;16250;49.932;10.980;2023-01-10T15:49:31;4.60;99.90
29211;DHT22;16250;49.932;10.980;2023-01-10T15:51:57;4.60;99.90
29211;DHT22;16250;49.932;10.980;2023-01-10T15:56:52;4.60;99.90
29211;DHT22;16250;49.932;10.980;2023-01-10T15:59:22;4.60;99.90
29211;DHT22;16250;49.932;10.980;2023-01-10T16:04:50;4.60;99.90
29211;DHT22;16250;49.932;10.980;2023-01-10T16:07:26;4.60;99.90
29211;DHT22;16250;49.932;10.980;2023-01-10T16:10:00;4.60;99.90
29211;DHT22;16250;49.932;10.980;2023-01-10T16:15:17;4.50;99.90
29211;DHT22;16250;49.932;10.980;2023-01-10T16:17:43;4.40;99.90
29211;DHT22;16250;49.932;10.980;2023-01-10T16:20:14;4.40;99.90
29211;DHT22;16250;49.932;10.980;2023-01-10T16:22:41;4.40;99.90
29211;DHT22;16250;49.932;10.980;2023-01-10T16:25:16;4.30;99.90
29211;DHT22;16250;49.932;10.980;2023-01-10T16:27:42;4.30;99.90
29211;DHT22;16250;49.932;10.980;2023-01-10T16:30:41;4.20;99.90
29211;DHT22;16250;49.932;10.980;2023-01-10T16:33:16;4.20;99.90
29211;DHT22;16250;49.932;10.980;2023-01-10T16:35:46;4.10;99.90
29211;DHT22;16250;49.932;10.980;2023-01-10T16:38:13;4.10;99.90
29211;DHT22;16250;49.932;10.980;2023-01-10T16:40:42;4.10;99.90
29211;DHT22;16250;49.932;10.980;2023-01-10T16:43:09;4.10;99.90
29211;DHT22;16250;49.932;10.980;2023-01-10T16:46:06;4.00;99.90
29211;DHT22;16250;49.932;10.980;2023-01-10T16:48:31;4.00;99.90
29211;DHT22;16250;49.932;10.980;2023-01-10T16:51:16;4.00;99.90
29211;DHT22;16250;49.932;10.980;2023-01-10T16:53:43;3.90;99.90
29211;DHT22;16250;49.932;10.980;2023-01-10T16:56:12;3.80;99.90
29211;DHT22;16250;49.932;10.980;2023-01-10T16:58:38;3.80;99.90
29211;DHT22;16250;49.932;10.980;2023-01-10T17:01:04;3.80;99.90
29211;DHT22;16250;49.932;10.980;2023-01-10T17:03:34;3.80;99.90
29211;DHT22;16250;49.932;10.980;2023-01-10T17:06:03;3.80;99.90
29211;DHT22;16250;49.932;10.980;2023-01-10T17:08:29;3.80;99.90
29211;DHT22;16250;49.932;10.980;2023-01-10T17:10:58;3.80;99.90
29211;DHT22;16250;49.932;10.980;2023-01-10T17:13:31;3.70;99.90
29211;DHT22;16250;49.932;10.980;2023-01-10T17:15:57;3.80;99.90